Time;durP1;ratioP1;P1;durP2;ratioP2;P2;SDS_P1;SDS_P2;PMS_P1;PMS_P2;Temp;Humidity;BMP_temperature;BMP_pressure;BME280_temperature;BME280_humidity;BME280_pressure;Samples;Min_cycle;Max_cycle;Signal;HPM_P1;HPM_P2
2023/01/03 00:01:45;;;;;;;20.63;9.77;;;1.40;99.90;;;;;;5099842;28;20074;-78
2023/01/03 00:04:13;;;;;;;23.17;10.55;;;1.40;99.90;;;;;;5098455;28;20047;-78
2023/01/03 00:06:51;;;;;;;20.15;10.25;;;1.40;99.90;;;;;;5117126;28;20044;-78
2023/01/03 00:09:21;;;;;;;20.92;10.75;;;1.40;99.90;;;;;;5117321;28;20047;-77
2023/01/03 00:14:39;;;;;;;22.83;9.73;;;1.30;99.90;;;;;;5117124;28;20054;-77
2023/01/03 00:17:07;;;;;;;23.77;9.57;;;1.30;99.90;;;;;;5116023;28;20055;-77
2023/01/03 00:19:40;;;;;;;20.67;10.43;;;1.30;99.90;;;;;;5099279;28;20076;-77
2023/01/03 00:22:09;;;;;;;21.35;9.68;;;2.20;99.90;;;;;;5099753;28;20522;-77
2023/01/03 00:24:36;;;;;;;22.50;10.80;;;1.20;99.90;;;;;;5098253;28;20452;-77
2023/01/03 00:27:05;;;;;;;22.40;9.02;;;1.30;99.90;;;;;;5116842;28;20467;-77
2023/01/03 00:29:32;;;;;;;;;;;1.20;99.90;;;;;;5099449;28;20383;-77
2023/01/03 00:32:00;;;;;;;28.73;10.40;;;1.20;99.90;;;;;;5115540;28;19927;-77
2023/01/03 00:34:27;;;;;;;21.23;11.00;;;2.20;99.90;;;;;;5099524;28;20059;-77
2023/01/03 00:36:55;;;;;;;18.00;9.50;;;1.40;99.90;;;;;;5116125;28;20054;-77
2023/01/03 00:39:24;;;;;;;27.27;11.15;;;1.30;99.90;;;;;;5116694;28;20464;-77
2023/01/03 00:41:52;;;;;;;26.63;11.25;;;1.30;99.90;;;;;;5081984;28;20044;-77
2023/01/03 00:44:20;;;;;;;25.17;10.48;;;1.30;99.90;;;;;;5115290;28;20452;-78
2023/01/03 00:46:47;;;;;;;24.75;10.77;;;1.40;99.90;;;;;;5116387;28;20353;-78
2023/01/03 00:49:14;;;;;;;24.27;11.25;;;1.40;99.90;;;;;;5116378;28;20058;-78
2023/01/03 00:51:43;;;;;;;24.65;11.93;;;1.40;99.90;;;;;;5115279;28;20051;-78
2023/01/03 00:54:12;;;;;;;27.55;12.00;;;1.50;99.90;;;;;;5099033;28;20051;-78
2023/01/03 00:56:43;;;;;;;32.45;11.65;;;1.50;99.90;;;;;;5098970;28;20506;-78
2023/01/03 00:59:12;;;;;;;30.42;12.13;;;1.60;99.90;;;;;;5097358;28;20052;-78
2023/01/03 01:01:43;;;;;;;32.88;12.82;;;1.60;99.90;;;;;;5116532;28;20047;-78
2023/01/03 01:04:17;;;;;;;30.70;12.98;;;1.80;99.90;;;;;;5115392;28;20055;-78
2023/01/03 01:06:48;;;;;;;28.98;13.30;;;1.90;99.90;;;;;;5081379;28;20051;-78
2023/01/03 01:09:22;;;;;;;33.45;13.85;;;2.00;99.90;;;;;;5115949;28;20063;-78
2023/01/03 01:11:50;;;;;;;26.40;12.98;;;3.00;99.90;;;;;;5096017;28;20483;-78
2023/01/03 01:14:22;;;;;;;29.58;13.07;;;3.00;99.90;;;;;;5116408;28;20047;-78
2023/01/03 01:16:54;;;;;;;42.13;15.15;;;2.50;99.90;;;;;;5081510;28;20043;-78
2023/01/03 01:19:25;;;;;;;38.53;16.05;;;3.50;99.90;;;;;;5116157;28;20074;-77
2023/01/03 01:21:53;;;;;;;36.75;16.70;;;2.80;99.90;;;;;;5115731;28;20047;-78
2023/01/03 01:24:23;;;;;;;43.63;16.83;;;2.80;99.90;;;;;;5096631;28;20036;-78
2023/01/03 01:26:51;;;;;;;40.45;16.42;;;3.10;99.90;;;;;;5097977;28;20047;-78
2023/01/03 01:29:19;;;;;;;;;;;3.40;99.90;;;;;;5116010;28;20046;-77
2023/01/03 01:31:47;;;;;;;31.33;14.50;;;3.50;99.90;;;;;;5114883;28;19930;-78
2023/01/03 01:34:14;;;;;;;;;;;3.60;99.90;;;;;;5115872;28;20036;-78
2023/01/03 01:36:44;;;;;;;30.45;13.52;;;3.70;99.90;;;;;;5115678;28;19919;-78
2023/01/03 01:39:15;;;;;;;35.75;14.98;;;3.80;99.90;;;;;;5114382;28;20054;-78
2023/01/03 01:45:11;;;;;;;35.78;15.48;;;3.70;99.90;;;;;;5114366;28;20043;-78
2023/01/03 01:47:58;;;;;;;38.10;15.35;;;4.00;99.90;;;;;;5057681;28;20055;-78
2023/01/03 01:50:52;;;;;;;43.25;17.67;;;4.30;99.90;;;;;;5096738;28;20050;-78
2023/01/03 01:53:40;;;;;;;39.90;17.25;;;4.10;99.90;;;;;;5115439;28;20043;-77
2023/01/03 01:56:22;;;;;;;41.72;17.15;;;5.20;99.90;;;;;;5097822;28;20047;-78
2023/01/03 01:58:51;;;;;;;54.35;18.33;;;4.50;99.90;;;;;;5114074;28;20368;-78
2023/01/03 02:01:21;;;;;;;39.58;17.08;;;4.50;99.90;;;;;;5115400;28;20356;-77
2023/01/03 02:03:59;;;;;;;42.75;14.95;;;4.30;99.90;;;;;;5114182;28;20051;-78
2023/01/03 02:06:30;;;;;;;35.40;13.63;;;4.60;99.90;;;;;;5115009;28;20056;-77
2023/01/03 02:08:57;;;;;;;32.05;12.40;;;4.50;99.90;;;;;;5115396;28;20039;-76
2023/01/03 02:13:04;;;;;;;37.13;13.32;;;4.70;99.90;;;;;;5113992;28;20391;-77
2023/01/03 02:15:03;;;;;;;38.10;14.77;;;4.50;99.90;;;;;;5086102;28;20047;-78
2023/01/03 02:17:37;;;;;;;36.90;15.55;;;4.20;99.90;;;;;;5113949;28;20043;-77
2023/01/03 02:20:36;;;;;;;43.97;15.80;;;4.40;99.90;;;;;;5115061;28;20055;-78
2023/01/03 02:23:06;;;;;;;40.53;15.60;;;4.50;99.90;;;;;;5099124;28;20062;-78
2023/01/03 02:25:53;;;;;;;36.05;15.98;;;5.10;99.90;;;;;;5118227;28;20043;-78
2023/01/03 02:28:46;;;;;;;38.15;15.38;;;4.50;99.90;;;;;;5101429;28;20043;-78
2023/01/03 02:31:31;;;;;;;47.50;16.25;;;4.40;99.90;;;;;;5117973;28;20055;-77
2023/01/03 02:34:14;;;;;;;44.33;16.55;;;5.20;99.90;;;;;;5101389;28;20109;-78
2023/01/03 02:37:03;;;;;;;40.40;14.45;;;5.00;99.90;;;;;;5119063;28;20487;-78
2023/01/03 02:39:43;;;;;;;35.30;14.85;;;4.70;99.90;;;;;;5119288;28;20055;-77
2023/01/03 02:43:00;;;;;;;38.78;16.73;;;4.80;99.90;;;;;;5118835;28;20040;-77
2023/01/03 02:45:37;;;;;;;43.08;17.50;;;4.80;99.90;;;;;;5111107;28;20043;-78
2023/01/03 02:48:32;;;;;;;50.55;18.05;;;4.80;99.90;;;;;;5100931;28;20047;-78
2023/01/03 02:51:03;;;;;;;44.00;17.58;;;4.90;99.90;;;;;;5117746;28;20043;-78
2023/01/03 02:53:39;;;;;;;47.15;17.33;;;5.10;99.90;;;;;;5118734;28;20048;-78
2023/01/03 02:56:15;;;;;;;41.42;18.42;;;6.10;99.90;;;;;;5119011;28;20475;-78
2023/01/03 02:58:45;;;;;;;42.53;18.63;;;5.10;99.90;;;;;;5117477;28;20051;-78
2023/01/03 03:01:15;;;;;;;43.50;18.73;;;5.90;99.90;;;;;;5101142;28;20384;-78
2023/01/03 03:03:45;;;;;;;51.58;19.80;;;5.30;99.90;;;;;;5117480;28;20388;-77
2023/01/03 03:06:37;;;;;;;50.15;19.80;;;5.40;99.90;;;;;;5118467;28;20459;-78
2023/01/03 03:09:05;;;;;;;47.35;19.20;;;5.20;99.90;;;;;;5118580;28;20040;-77
2023/01/03 03:14:37;;;;;;;50.47;19.65;;;5.30;99.90;;;;;;5118262;28;20044;-78
2023/01/03 03:17:16;;;;;;;50.42;18.27;;;5.40;99.90;;;;;;5117530;28;20056;-77
2023/01/03 03:25:55;;;;;;;51.55;18.38;;;5.90;99.90;;;;;;5099036;28;20046;-78
2023/01/03 03:28:34;;;;;;;49.08;19.13;;;5.50;99.90;;;;;;5100543;28;20456;-77
2023/01/03 03:31:23;;;;;;;58.03;21.52;;;5.40;99.90;;;;;;5116757;28;20395;-77
2023/01/03 03:33:57;;;;;;;56.00;20.05;;;5.30;99.90;;;;;;5116911;28;20046;-77
2023/01/03 03:36:39;;;;;;;53.55;18.00;;;5.80;99.90;;;;;;5100008;28;20048;-77
2023/01/03 03:44:59;;;;;;;44.67;17.25;;;5.60;99.90;;;;;;5116709;28;20055;-77
2023/01/03 03:45:01;;;;;;;55.13;16.95;;;6.20;99.90;;;;;;5099193;28;20375;-77
2023/01/03 03:47:48;;;;;;;43.53;16.10;;;5.40;99.90;;;;;;5117897;28;20055;-77
2023/01/03 03:50:29;;;;;;;51.72;16.05;;;5.30;99.90;;;;;;5116492;28;20494;-77
2023/01/03 03:53:00;;;;;;;44.55;15.27;;;6.20;99.90;;;;;;5117974;28;20043;-77
2023/01/03 03:55:42;;;;;;;48.33;17.60;;;5.40;99.90;;;;;;5117822;28;20069;-78
2023/01/03 03:58:17;;;;;;;60.70;20.20;;;4.90;99.90;;;;;;5116314;28;20490;-77
2023/01/03 04:00:48;;;;;;;57.25;18.95;;;4.90;99.90;;;;;;5117406;28;20051;-77
2023/01/03 04:03:18;;;;;;;56.55;19.40;;;5.00;99.90;;;;;;5099879;28;20070;-77
2023/01/03 04:05:53;;;;;;;61.70;19.92;;;5.30;99.90;;;;;;5115977;28;20054;-77
2023/01/03 04:08:21;;;;;;;58.38;18.90;;;5.30;99.90;;;;;;5117392;28;20040;-76
2023/01/03 04:10:48;;;;;;;;;;;5.20;99.90;;;;;;5116470;28;20039;-77
2023/01/03 04:13:16;;;;;;;60.88;20.75;;;4.90;99.90;;;;;;5117114;28;19920;-77
2023/01/03 04:15:43;;;;;;;68.03;22.75;;;6.40;99.90;;;;;;5117025;28;20058;-77
2023/01/03 04:18:11;;;;;;;77.07;24.08;;;5.80;99.90;;;;;;5116203;28;20043;-77
2023/01/03 04:20:38;;;;;;;74.40;23.83;;;5.60;99.90;;;;;;5099231;28;20066;-77
2023/01/03 04:23:06;;;;;;;84.43;24.88;;;6.00;99.90;;;;;;5116973;28;20386;-76
2023/01/03 04:25:33;;;;;;;71.07;23.50;;;5.80;99.90;;;;;;5081140;28;20051;-77
2023/01/03 04:28:00;;;;;;;82.80;23.25;;;5.80;99.90;;;;;;5117509;28;20044;-77
2023/01/03 04:30:28;;;;;;;86.72;24.38;;;6.90;99.90;;;;;;5098422;28;20039;-76
2023/01/03 04:32:56;;;;;;;65.20;23.00;;;7.30;99.90;;;;;;5099224;28;20055;-77
2023/01/03 04:35:23;;;;;;;66.50;23.02;;;5.80;99.90;;;;;;5098918;28;20063;-77
2023/01/03 04:37:51;;;;;;;79.03;25.13;;;5.80;99.90;;;;;;5080751;28;20044;-77
2023/01/03 04:40:18;;;;;;;80.07;24.38;;;6.80;99.90;;;;;;5117004;28;20046;-77
2023/01/03 04:45:32;;;;;;;85.70;25.02;;;6.10;99.90;;;;;;5097486;28;20368;-77
2023/01/03 04:47:59;;;;;;;76.63;24.30;;;6.00;99.90;;;;;;5116391;28;20039;-77
2023/01/03 04:50:28;;;;;;;61.50;21.75;;;6.50;99.90;;;;;;5115184;28;20036;-77
2023/01/03 04:52:57;;;;;;;66.05;20.90;;;6.90;99.90;;;;;;5116746;28;20043;-77
2023/01/03 04:55:25;;;;;;;68.18;20.13;;;6.20;99.90;;;;;;5116323;28;20039;-77
2023/01/03 04:57:52;;;;;;;;;;;6.20;99.90;;;;;;5115939;28;20044;-76
2023/01/03 05:00:20;;;;;;;60.63;17.27;;;6.10;99.90;;;;;;5116130;28;19920;-77
2023/01/03 05:02:47;;;;;;;48.97;16.27;;;6.30;99.90;;;;;;5116014;28;20407;-77
2023/01/03 05:05:15;;;;;;;66.60;17.20;;;6.80;99.90;;;;;;5097337;28;20554;-77
2023/01/03 05:07:43;;;;;;;51.50;12.73;;;6.10;99.90;;;;;;5116215;28;20046;-77
2023/01/03 05:10:10;;;;;;;48.72;14.50;;;6.10;99.90;;;;;;5098247;28;20494;-77
2023/01/03 05:12:37;;;;;;;54.25;14.48;;;6.30;99.90;;;;;;5115734;28;20040;-77
2023/01/03 05:15:06;;;;;;;50.60;14.52;;;6.30;99.90;;;;;;5115883;28;20118;-76
2023/01/03 05:17:33;;;;;;;52.55;14.85;;;6.20;99.90;;;;;;5097007;28;20052;-77
2023/01/03 05:25:51;;;;;;;54.88;14.35;;;6.30;99.90;;;;;;5114662;28;20059;-77
2023/01/03 05:28:20;;;;;;;56.63;14.60;;;6.60;99.90;;;;;;5098344;28;20047;-77
2023/01/03 05:30:48;;;;;;;49.60;14.32;;;6.60;99.90;;;;;;5115014;28;20475;-77
2023/01/03 05:33:16;;;;;;;49.58;13.88;;;6.10;99.90;;;;;;5115728;28;20066;-77
2023/01/03 05:35:47;;;;;;;59.42;14.00;;;6.40;99.90;;;;;;5115636;28;20467;-77
2023/01/03 05:38:14;;;;;;;54.08;14.70;;;6.20;99.90;;;;;;5096540;28;20388;-77
2023/01/03 05:40:42;;;;;;;52.97;14.70;;;6.50;99.90;;;;;;5115503;28;20359;-77
2023/01/03 05:43:10;;;;;;;49.70;15.48;;;6.50;99.90;;;;;;5115387;28;20040;-77
2023/01/03 05:45:38;;;;;;;58.83;16.02;;;6.30;99.90;;;;;;5096495;28;20032;-77
2023/01/03 05:48:07;;;;;;;57.13;14.85;;;6.20;99.90;;;;;;5115380;28;20047;-77
2023/01/03 05:50:35;;;;;;;57.53;14.50;;;6.40;99.90;;;;;;5114344;28;20043;-77
2023/01/03 05:53:03;;;;;;;53.88;14.50;;;6.40;99.90;;;;;;5115226;28;20043;-77
2023/01/03 05:55:30;;;;;;;;;;;7.70;99.90;;;;;;5116042;28;20039;-77
2023/01/03 05:57:58;;;;;;;44.35;11.82;;;6.30;99.90;;;;;;5113487;28;19920;-77
2023/01/03 06:00:25;;;;;;;60.30;12.43;;;6.70;99.90;;;;;;5115153;28;20047;-77
2023/01/03 06:02:53;;;;;;;45.00;10.93;;;6.30;99.90;;;;;;5115279;28;20491;-77
2023/01/03 06:05:21;;;;;;;46.22;12.32;;;6.40;99.90;;;;;;5113829;28;20376;-77
2023/01/03 06:07:48;;;;;;;35.53;11.95;;;6.30;99.90;;;;;;5097250;28;20066;-77
2023/01/03 06:10:16;;;;;;;48.80;12.68;;;7.50;99.90;;;;;;5113833;28;20043;-77
2023/01/03 06:12:43;;;;;;;52.00;12.85;;;6.50;99.90;;;;;;5115265;28;20051;-79
2023/01/03 06:15:11;;;;;;;52.60;13.05;;;6.40;99.90;;;;;;5115426;28;20454;-78
2023/01/03 06:17:53;;;;;;;47.42;11.73;;;7.90;99.90;;;;;;5113681;28;20503;-78
2023/01/03 06:20:21;;;;;;;52.65;11.48;;;6.90;99.90;;;;;;5097449;28;20043;-78
2023/01/03 06:22:50;;;;;;;51.33;13.48;;;6.50;99.90;;;;;;5096603;28;20058;-78
2023/01/03 06:25:18;;;;;;;;;;;6.60;99.90;;;;;;5079880;28;20047;-78
2023/01/03 06:27:45;;;;;;;53.65;11.55;;;6.60;99.90;;;;;;5115040;28;19926;-78
2023/01/03 06:30:14;;;;;;;45.20;12.18;;;6.60;99.90;;;;;;5114069;28;20047;-78
2023/01/03 06:32:43;;;;;;;49.90;12.40;;;6.60;99.90;;;;;;5114745;28;20463;-78
2023/01/03 06:35:11;;;;;;;54.83;12.27;;;6.60;99.90;;;;;;5097462;28;20357;-78
2023/01/03 06:37:39;;;;;;;45.63;11.65;;;6.80;99.90;;;;;;5113822;28;20062;-78
2023/01/03 06:40:07;;;;;;;44.75;11.32;;;7.20;99.90;;;;;;5097125;28;20376;-78
2023/01/03 06:42:43;;;;;;;45.60;11.10;;;6.50;99.90;;;;;;5114981;28;20066;-78
2023/01/03 06:53:39;;;;;;;64.13;11.98;;;7.50;99.90;;;;;;5114625;28;20047;-78
2023/01/03 06:56:07;;;;;;;46.13;10.70;;;6.50;99.90;;;;;;5096984;28;20050;-78
2023/01/03 06:58:35;;;;;;;49.45;11.02;;;6.60;99.90;;;;;;5113590;28;20480;-78
2023/01/03 07:01:03;;;;;;;43.88;8.90;;;8.00;99.90;;;;;;5114556;28;20376;-78
2023/01/03 07:03:32;;;;;;;43.78;10.05;;;6.70;99.90;;;;;;5114673;28;20486;-78
2023/01/03 07:05:59;;;;;;;;;;;6.40;99.90;;;;;;5080406;28;20407;-78
2023/01/03 07:08:27;;;;;;;46.85;8.43;;;6.40;99.90;;;;;;5116601;28;19927;-78
2023/01/03 07:10:54;;;;;;;46.53;9.23;;;6.90;99.90;;;;;;5117462;28;20051;-78
2023/01/03 07:16:16;;;;;;;43.92;8.68;;;6.60;99.90;;;;;;5118305;28;20113;-78
2023/01/03 07:18:45;;;;;;;50.15;8.32;;;7.20;99.90;;;;;;5117281;28;20482;-78
2023/01/03 07:21:26;;;;;;;51.20;8.23;;;6.60;99.90;;;;;;5100769;28;20054;-78
2023/01/03 07:23:56;;;;;;;33.95;6.30;;;6.40;99.90;;;;;;5117081;28;20296;-78
2023/01/03 07:26:24;;;;;;;56.47;6.50;;;6.80;99.90;;;;;;5083505;28;20047;-78
2023/01/03 07:28:51;;;;;;;34.90;5.88;;;7.50;99.90;;;;;;5118090;28;20066;-78
2023/01/03 07:31:19;;;;;;;59.20;6.72;;;7.10;99.90;;;;;;5116800;28;20054;-78
2023/01/03 07:33:47;;;;;;;36.90;5.80;;;6.40;99.90;;;;;;5100168;28;20356;-78
2023/01/03 07:36:15;;;;;;;44.13;6.05;;;6.50;99.90;;;;;;5117936;28;20367;-78
2023/01/03 07:38:44;;;;;;;52.13;6.28;;;6.50;99.90;;;;;;5099047;28;20054;-78
2023/01/03 07:41:13;;;;;;;41.55;6.20;;;6.90;99.90;;;;;;5117663;28;20052;-78
2023/01/03 07:43:44;;;;;;;54.17;8.25;;;6.60;99.90;;;;;;5116733;28;20062;-78
2023/01/03 07:46:19;;;;;;;50.95;7.07;;;6.50;99.90;;;;;;5117897;28;20051;-78
2023/01/03 07:48:49;;;;;;;52.58;7.40;;;6.80;99.90;;;;;;5117896;28;20040;-78
2023/01/03 07:51:21;;;;;;;54.85;8.88;;;6.80;99.90;;;;;;5099187;28;20059;-78
2023/01/03 07:53:50;;;;;;;58.85;8.48;;;6.90;99.90;;;;;;5099883;28;20067;-78
2023/01/03 07:56:18;;;;;;;56.30;8.45;;;8.60;99.90;;;;;;5100474;28;20055;-78
2023/01/03 07:58:50;;;;;;;56.78;8.10;;;7.40;99.90;;;;;;5098472;28;20376;-78
2023/01/03 08:01:19;;;;;;;44.10;6.47;;;7.40;99.90;;;;;;5117822;28;20058;-78
2023/01/03 08:03:47;;;;;;;50.30;7.05;;;7.20;99.90;;;;;;5116188;28;20048;-78
2023/01/03 08:06:21;;;;;;;43.75;7.03;;;7.40;99.90;;;;;;5099090;28;20056;-78
2023/01/03 08:14:23;;;;;;;43.10;5.47;;;7.70;99.90;;;;;;5117099;28;20039;-78
2023/01/03 08:16:54;;;;;;;46.72;5.35;;;8.00;99.90;;;;;;5116351;28;20051;-78
2023/01/03 08:19:23;;;;;;;39.38;5.78;;;7.40;99.90;;;;;;5116367;28;20054;-78
2023/01/03 08:21:51;;;;;;;41.85;5.88;;;7.40;99.90;;;;;;5099239;28;20044;-78
2023/01/03 08:24:18;;;;;;;48.63;5.57;;;8.80;99.90;;;;;;5115811;28;20047;-78
2023/01/03 08:26:46;;;;;;;36.47;5.38;;;7.60;99.90;;;;;;5082397;28;20059;-78
2023/01/03 08:29:13;;;;;;;58.15;5.60;;;7.80;99.90;;;;;;5098955;28;20058;-79
2023/01/03 08:31:45;;;;;;;40.00;4.95;;;8.90;99.90;;;;;;5080488;28;20044;-79
2023/01/03 08:34:14;;;;;;;51.20;4.68;;;7.70;99.90;;;;;;5116186;28;20043;-78
2023/01/03 08:36:54;;;;;;;52.67;5.60;;;7.90;99.90;;;;;;5116416;28;20464;-81
2023/01/03 08:39:27;;;;;;;44.35;5.20;;;8.00;99.90;;;;;;5116351;28;20048;-80
2023/01/03 08:42:02;;;;;;;52.13;4.90;;;9.50;99.90;;;;;;5098641;28;20051;-80
2023/01/03 08:44:30;;;;;;;35.30;4.68;;;8.70;99.90;;;;;;5097534;28;20472;-80
2023/01/03 08:46:59;;;;;;;49.40;5.28;;;9.70;99.90;;;;;;5116005;28;20480;-80
2023/01/03 08:49:28;;;;;;;44.88;4.90;;;8.40;99.90;;;;;;5098420;28;20043;-80
2023/01/03 08:51:55;;;;;;;38.38;4.57;;;8.20;99.90;;;;;;5097016;28;20493;-80
2023/01/03 08:54:23;;;;;;;39.55;4.72;;;8.60;99.90;;;;;;5116198;28;20380;-80
2023/01/03 08:56:50;;;;;;;42.92;4.57;;;8.50;99.90;;;;;;5098240;28;20040;-80
2023/01/03 08:59:18;;;;;;;45.75;5.03;;;8.60;99.90;;;;;;5080868;28;20380;-80
2023/01/03 09:01:45;;;;;;;52.22;5.18;;;8.40;99.90;;;;;;5097809;28;20043;-79
2023/01/03 09:04:13;;;;;;;44.08;4.55;;;9.70;99.90;;;;;;5114810;28;20043;-83
2023/01/03 09:06:40;;;;;;;55.95;4.40;;;10.10;99.90;;;;;;5094956;28;20055;-79
2023/01/03 09:09:08;;;;;;;58.17;4.90;;;10.10;99.90;;;;;;5080080;28;20044;-79
2023/01/03 09:11:36;;;;;;;45.03;4.38;;;9.80;99.90;;;;;;5087499;28;20043;-80
2023/01/03 09:14:03;;;;;;;39.42;4.28;;;10.60;99.90;;;;;;5097918;28;20494;-79
2023/01/03 09:16:31;;;;;;;36.03;4.60;;;8.90;99.90;;;;;;5098240;28;20475;-79
2023/01/03 09:19:01;;;;;;;50.92;4.50;;;10.40;99.90;;;;;;5114780;28;20043;-79
2023/01/03 09:21:29;;;;;;;53.47;5.00;;;9.60;99.90;;;;;;5090788;28;20456;-79
2023/01/03 09:24:00;;;;;;;34.15;3.50;;;9.50;99.90;;;;;;5076533;28;20388;-79
2023/01/03 09:26:28;;;;;;;46.35;4.28;;;9.60;99.90;;;;;;5095278;28;20055;-80
2023/01/03 09:28:56;;;;;;;42.45;4.05;;;9.00;99.90;;;;;;5077298;28;20051;-80
2023/01/03 09:31:23;;;;;;;42.00;4.35;;;9.80;99.90;;;;;;5058918;28;20511;-79
2023/01/03 09:33:51;;;;;;;38.83;3.65;;;9.30;99.90;;;;;;5061505;28;20047;-79
2023/01/03 09:36:18;;;;;;;53.17;4.20;;;9.20;99.90;;;;;;5095223;28;20036;-80
2023/01/03 09:38:46;;;;;;;43.97;3.97;;;9.10;99.90;;;;;;5081955;28;20052;-79
2023/01/03 09:41:32;;;;;;;40.22;4.38;;;10.10;99.90;;;;;;5066922;28;20465;-76
2023/01/03 09:44:03;;;;;;;43.80;4.60;;;8.90;99.90;;;;;;5078355;28;20051;-76
2023/01/03 09:46:34;;;;;;;46.30;4.80;;;10.20;99.90;;;;;;5078106;28;20055;-78
2023/01/03 09:49:04;;;;;;;49.72;5.35;;;9.50;99.90;;;;;;5095454;28;20048;-78
2023/01/03 10:06:49;;;;;;;38.50;4.50;;;9.50;99.90;;;;;;5114969;28;20044;-77
2023/01/03 10:09:55;;;;;;;44.50;4.68;;;9.40;99.90;;;;;;5080425;28;20047;-77
2023/01/03 10:12:47;;;;;;;50.20;4.63;;;9.60;99.90;;;;;;5046647;28;20050;-77
2023/01/03 10:15:28;;;;;;;38.55;4.38;;;9.30;99.90;;;;;;5097180;28;20039;-77
2023/01/03 10:18:23;;;;;;;42.92;5.18;;;9.30;99.90;;;;;;5096915;28;20157;-77
2023/01/03 10:21:06;;;;;;;46.20;4.57;;;9.30;99.90;;;;;;5097709;28;20048;-77
2023/01/03 10:23:34;;;;;;;46.00;4.57;;;9.30;99.90;;;;;;5114249;28;20044;-77
2023/01/03 10:26:11;;;;;;;45.97;4.65;;;10.30;99.90;;;;;;5097323;28;20044;-77
2023/01/03 10:28:42;;;;;;;43.03;4.80;;;9.70;99.90;;;;;;5115095;28;20040;-76
2023/01/03 10:31:24;;;;;;;34.00;4.72;;;9.90;99.90;;;;;;5114087;28;20051;-77
2023/01/03 10:33:52;;;;;;;41.97;4.80;;;9.80;99.90;;;;;;5115287;28;20040;-76
2023/01/03 10:36:20;;;;;;;46.20;4.68;;;10.80;99.90;;;;;;5080857;28;20054;-77
2023/01/03 10:39:02;;;;;;;26.48;4.28;;;10.20;99.90;;;;;;5096221;28;20047;-77
2023/01/03 10:41:40;;;;;;;41.00;4.38;;;9.50;99.90;;;;;;5097356;28;20047;-77
2023/01/03 10:44:27;;;;;;;40.15;4.10;;;9.70;99.90;;;;;;5116980;28;20059;-77
2023/01/03 10:46:58;;;;;;;36.70;4.22;;;10.20;99.90;;;;;;5118806;28;20428;-77
2023/01/03 10:49:30;;;;;;;39.05;4.43;;;10.00;99.90;;;;;;5119098;28;20047;-77
2023/01/03 10:52:17;;;;;;;26.63;3.63;;;10.70;99.90;;;;;;5118281;28;20039;-77
2023/01/03 10:54:51;;;;;;;35.97;4.63;;;9.70;99.90;;;;;;5101084;28;20502;-77
2023/01/03 10:57:40;;;;;;;36.33;3.88;;;9.80;99.90;;;;;;5101107;28;20356;-76
2023/01/03 11:00:34;;;;;;;43.67;4.43;;;9.80;99.90;;;;;;5118542;28;20048;-76
2023/01/03 11:03:08;;;;;;;33.22;3.92;;;9.70;99.90;;;;;;5100633;28;20475;-77
2023/01/03 11:05:38;;;;;;;31.60;3.90;;;10.60;99.90;;;;;;5117467;28;20039;-77
2023/01/03 11:08:17;;;;;;;43.60;4.32;;;10.60;99.90;;;;;;5118599;28;20375;-77
2023/01/03 11:10:54;;;;;;;33.40;4.07;;;10.00;99.90;;;;;;5099706;28;20051;-77
2023/01/03 11:13:39;;;;;;;36.28;4.20;;;10.40;99.90;;;;;;5084253;28;20066;-77
2023/01/03 11:16:16;;;;;;;43.83;4.47;;;9.80;99.90;;;;;;5118900;28;20050;-77
2023/01/03 11:19:04;;;;;;;40.70;4.07;;;11.00;99.90;;;;;;5117489;28;20063;-77
2023/01/03 11:22:04;;;;;;;35.90;4.28;;;9.80;99.90;;;;;;5118350;28;20164;-77
2023/01/03 11:25:10;;;;;;;36.13;4.13;;;10.00;99.90;;;;;;5099826;28;20048;-77
2023/01/03 11:28:04;;;;;;;35.80;4.05;;;10.00;99.90;;;;;;5118008;28;20043;-77
2023/01/03 11:30:55;;;;;;;32.22;3.78;;;9.90;99.90;;;;;;5117445;28;20047;-77
2023/01/03 11:33:51;;;;;;;38.35;3.78;;;10.10;99.90;;;;;;5100599;28;20470;-77
2023/01/03 11:36:51;;;;;;;44.88;4.35;;;10.10;99.90;;;;;;5100101;28;20487;-77
2023/01/03 11:39:45;;;;;;;37.40;4.10;;;10.20;99.90;;;;;;5099942;28;20360;-76
2023/01/03 11:42:36;;;;;;;44.40;4.47;;;10.00;99.90;;;;;;5118012;28;20372;-76
2023/01/03 11:45:17;;;;;;;34.08;4.18;;;10.00;99.90;;;;;;5116789;28;20044;-77
2023/01/03 11:48:00;;;;;;;37.40;4.05;;;10.20;99.90;;;;;;5117996;28;20070;-76
2023/01/03 11:50:37;;;;;;;39.45;4.05;;;11.10;99.90;;;;;;5116951;28;20383;-77
2023/01/03 11:53:33;;;;;;;40.17;4.47;;;10.00;99.90;;;;;;5117623;28;20371;-76
2023/01/03 11:56:27;;;;;;;30.05;3.85;;;9.90;99.90;;;;;;5116524;28;20043;-76
2023/01/03 11:59:09;;;;;;;28.90;4.15;;;10.00;99.90;;;;;;5116551;28;20384;-76
2023/01/03 12:02:16;;;;;;;36.65;4.25;;;9.90;99.90;;;;;;5117773;28;20456;-75
2023/01/03 12:05:21;;;;;;;25.30;2.97;;;9.90;99.90;;;;;;5115964;28;20062;-75
2023/01/03 12:08:00;;;;;;;44.10;4.05;;;9.90;99.90;;;;;;5112290;28;20059;-83
2023/01/03 12:10:43;;;;;;;33.20;3.78;;;10.50;99.90;;;;;;5112459;27;20050;-78
2023/01/03 12:13:37;;;;;;;34.25;3.50;;;9.90;99.90;;;;;;5099776;28;20058;-79
2023/01/03 12:16:18;;;;;;;37.83;3.65;;;9.90;99.90;;;;;;5117607;28;20039;-77
2023/01/03 12:18:57;;;;;;;29.63;4.00;;;10.00;99.90;;;;;;5078297;28;20047;-78
2023/01/03 12:21:35;;;;;;;39.30;3.40;;;9.90;99.90;;;;;;5096690;28;20047;-79
2023/01/03 12:24:38;;;;;;;32.15;3.50;;;9.90;99.90;;;;;;5095168;28;20048;-79
2023/01/03 12:27:57;;;;;;;33.72;3.38;;;9.90;99.90;;;;;;5046489;28;20043;-79
2023/01/03 12:30:43;;;;;;;31.70;3.05;;;10.10;99.90;;;;;;5045163;28;20067;-79
2023/01/03 12:33:15;;;;;;;33.65;3.35;;;10.00;99.90;;;;;;5078731;28;20373;-79
2023/01/03 12:35:50;;;;;;;29.77;3.03;;;11.50;99.90;;;;;;5096457;28;20048;-76
2023/01/03 12:38:24;;;;;;;27.90;3.25;;;10.80;99.90;;;;;;5095206;28;20048;-76
2023/01/03 12:41:00;;;;;;;31.35;3.42;;;10.40;99.90;;;;;;5099014;28;20040;-76
2023/01/03 12:43:37;;;;;;;24.50;2.63;;;9.90;99.90;;;;;;5098690;28;20051;-76
2023/01/03 12:46:11;;;;;;;34.53;3.17;;;10.00;99.90;;;;;;5085735;28;20376;-76
2023/01/03 12:49:10;;;;;;;23.73;2.50;;;10.40;99.90;;;;;;5116234;28;20032;-75
2023/01/03 12:51:38;;;;;;;23.60;3.00;;;10.00;99.90;;;;;;5097724;28;20031;-76
2023/01/03 12:54:11;;;;;;;25.58;2.13;;;10.20;99.90;;;;;;5098030;28;20043;-81
2023/01/03 12:57:10;;;;;;;25.35;2.60;;;10.10;99.90;;;;;;5116062;28;20379;-80
2023/01/03 13:00:14;;;;;;;25.85;2.42;;;10.00;99.90;;;;;;5098610;28;20495;-80
2023/01/03 13:02:44;;;;;;;22.65;2.47;;;9.80;99.90;;;;;;5061835;28;20063;-81
2023/01/03 13:05:36;;;;;;;22.65;2.40;;;9.80;99.90;;;;;;5097015;28;20052;-80
2023/01/03 13:08:25;;;;;;;33.28;3.35;;;9.90;99.90;;;;;;5116104;28;20066;-79
2023/01/03 13:10:58;;;;;;;31.38;2.63;;;10.00;99.90;;;;;;5114686;28;20048;-80
2023/01/03 13:13:26;;;;;;;33.13;3.40;;;9.90;99.90;;;;;;5081627;28;20044;-79
2023/01/03 13:15:54;;;;;;;35.80;3.35;;;10.30;99.90;;;;;;5064594;28;20051;-82
2023/01/03 13:18:22;;;;;;;;;;;9.70;99.90;;;;;;5097612;28;20040;-81
2023/01/03 13:20:50;;;;;;;29.98;2.97;;;10.00;99.90;;;;;;5115792;28;19920;-82
2023/01/03 13:23:32;;;;;;;24.38;3.03;;;10.30;99.90;;;;;;5097534;28;20062;-83
2023/01/03 13:26:05;;;;;;;26.40;2.97;;;9.80;99.90;;;;;;5115569;28;20048;-83
2023/01/03 13:28:34;;;;;;;31.00;3.33;;;10.60;99.90;;;;;;5115752;28;20046;-83
2023/01/03 13:31:16;;;;;;;32.03;3.35;;;10.30;99.90;;;;;;5079858;28;20043;-83
2023/01/03 13:33:47;;;;;;;29.33;3.40;;;10.00;99.90;;;;;;5080696;28;20043;-81
2023/01/03 13:36:15;;;;;;;29.48;3.40;;;10.10;99.90;;;;;;5081485;28;20047;-80
2023/01/03 13:38:42;;;;;;;36.55;3.70;;;10.70;99.90;;;;;;5114688;28;20039;-80
2023/01/03 13:41:35;;;;;;;21.20;2.78;;;10.20;99.90;;;;;;5097886;28;20048;-77
2023/01/03 13:44:19;;;;;;;30.95;3.20;;;10.10;99.90;;;;;;5095886;28;20491;-81
2023/01/03 13:46:48;;;;;;;35.15;3.53;;;10.10;99.90;;;;;;5088654;28;20059;-81
2023/01/03 13:49:19;;;;;;;27.70;3.22;;;10.10;99.90;;;;;;5078608;28;20044;-80
2023/01/03 13:51:51;;;;;;;35.45;3.33;;;10.50;99.90;;;;;;5110476;28;20058;-77
2023/01/03 13:54:18;;;;;;;42.42;3.92;;;10.70;99.90;;;;;;5103852;28;20051;-77
2023/01/03 13:56:48;;;;;;;37.03;3.73;;;10.70;99.90;;;;;;5084766;28;20044;-76
2023/01/03 13:59:43;;;;;;;37.13;4.32;;;10.10;99.90;;;;;;5114185;28;20287;-76
2023/01/03 14:02:32;;;;;;;42.03;3.90;;;10.10;99.90;;;;;;5097422;28;20357;-76
2023/01/03 14:05:03;;;;;;;27.77;3.55;;;10.20;99.90;;;;;;5114475;28;20444;-76
2023/01/03 14:07:58;;;;;;;36.22;3.50;;;10.30;99.90;;;;;;5097977;28;20043;-76
2023/01/03 14:10:31;;;;;;;39.95;4.05;;;10.20;99.90;;;;;;5113935;28;20047;-75
2023/01/03 14:13:17;;;;;;;40.78;3.65;;;10.30;99.90;;;;;;5096446;28;20044;-75
2023/01/03 14:15:47;;;;;;;41.17;4.15;;;10.30;99.90;;;;;;5100377;28;20047;-76
2023/01/03 14:18:23;;;;;;;38.50;3.58;;;10.70;99.90;;;;;;5093676;28;20052;-76
2023/01/03 14:20:53;;;;;;;33.33;3.85;;;10.70;99.90;;;;;;5095336;28;20048;-75